createdAt,value
2018-01-23T00:02:21.975Z,98552.34
2018-01-23T00:04:51.288Z,98547.17
2018-01-23T00:07:20.655Z,98565.84
2018-01-23T00:09:48.951Z,98572.61
2018-01-23T00:12:17.266Z,98571.55
2018-01-23T00:14:45.611Z,98577.58
2018-01-23T00:17:14.387Z,98576.48
2018-01-23T00:19:43.008Z,98568.50
2018-01-23T00:22:14.092Z,98557.72
2018-01-23T00:24:42.383Z,98568.00
2018-01-23T00:27:10.688Z,98569.50
2018-01-23T00:29:39.823Z,98579.33
2018-01-23T00:32:08.115Z,98583.34
2018-01-23T00:34:36.476Z,98578.93
2018-01-23T00:37:05.120Z,98591.13
2018-01-23T00:39:33.415Z,98580.97
2018-01-23T00:44:36.081Z,98595.30
2018-01-23T00:47:04.449Z,98599.17
2018-01-23T00:49:32.748Z,98596.11
2018-01-23T00:52:01.875Z,98605.42
2018-01-23T00:54:30.423Z,98622.55
2018-01-23T00:56:59.087Z,98625.97
2018-01-23T00:59:27.567Z,98622.34
2018-01-23T01:01:56.133Z,98622.19
2018-01-23T01:04:24.431Z,98634.60
2018-01-23T01:06:52.956Z,98635.30
2018-01-23T01:09:21.269Z,98638.22
2018-01-23T01:11:49.579Z,98645.44
2018-01-23T01:14:18.051Z,98649.70
2018-01-23T01:16:46.659Z,98656.79
2018-01-23T01:19:15.764Z,98664.14
2018-01-23T01:21:43.446Z,98666.05
2018-01-23T01:24:11.807Z,98671.18
2018-01-23T01:26:40.147Z,98672.78
2018-01-23T01:29:08.442Z,98678.21
2018-01-23T01:31:37.754Z,98676.77
2018-01-23T01:34:06.055Z,98672.55
2018-01-23T01:36:34.370Z,98670.75
2018-01-23T01:39:03.267Z,98668.85
2018-01-23T01:41:31.639Z,98685.85
2018-01-23T01:43:59.935Z,98683.17
2018-01-23T01:46:28.275Z,98692.15
2018-01-23T01:48:56.584Z,98693.52
2018-01-23T01:51:24.883Z,98696.16
2018-01-23T01:53:53.224Z,98700.81
2018-01-23T01:56:21.527Z,98710.55
2018-01-23T01:58:50.595Z,98721.88
2018-01-23T02:01:19.207Z,98718.89
2018-01-23T02:03:47.516Z,98724.33
2018-01-23T02:06:15.839Z,98729.33
2018-01-23T02:08:44.439Z,98730.15
2018-01-23T02:11:12.744Z,98733.78
2018-01-23T02:13:41.055Z,98735.33
2018-01-23T02:16:09.379Z,98734.17
2018-01-23T02:18:38.447Z,98736.70
2018-01-23T02:21:06.780Z,98737.47
2018-01-23T02:23:35.840Z,98736.28
2018-01-23T02:26:04.139Z,98741.39
2018-01-23T02:28:33.855Z,98750.41
2018-01-23T02:31:02.219Z,98747.91
2018-01-23T02:33:30.535Z,98750.91
2018-01-23T02:35:59.866Z,98765.20
2018-01-23T02:38:28.228Z,98765.20
2018-01-23T02:40:56.531Z,98763.46
2018-01-23T02:43:25.163Z,98770.84
2018-01-23T02:45:53.464Z,98777.45
2018-01-23T02:48:21.767Z,98770.52
2018-01-23T02:50:50.139Z,98768.30
2018-01-23T02:53:18.436Z,98766.64
2018-01-23T02:55:47.499Z,98771.59
2018-01-23T02:58:17.956Z,98772.38
2018-01-23T03:00:46.262Z,98781.83
2018-01-23T03:03:14.567Z,98783.08
2018-01-23T03:05:42.916Z,98787.09
2018-01-23T03:08:11.299Z,98786.82
2018-01-23T03:10:39.599Z,98783.30
2018-01-23T03:13:08.251Z,98788.77
2018-01-23T03:15:37.073Z,98790.69
2018-01-23T03:18:06.354Z,98789.00
2018-01-23T03:20:34.908Z,98779.11
2018-01-23T03:23:03.479Z,98785.83
2018-01-23T03:25:32.563Z,98783.99
2018-01-23T03:28:00.896Z,98795.53
2018-01-23T03:30:29.207Z,98805.66
2018-01-23T03:32:57.511Z,98812.02
2018-01-23T03:35:27.380Z,98811.98
2018-01-23T03:37:56.383Z,98808.64
2018-01-23T03:40:24.683Z,98804.37
2018-01-23T03:42:53.056Z,98798.55
2018-01-23T03:45:24.472Z,98798.27
2018-01-23T03:47:53.327Z,98799.47
2018-01-23T03:50:26.091Z,98804.20
2018-01-23T03:52:56.551Z,98806.45
2018-01-23T03:55:24.851Z,98808.38
2018-01-23T03:57:53.599Z,98811.66
2018-01-23T04:00:22.116Z,98819.52
2018-01-23T04:02:50.431Z,98819.46
2018-01-23T04:05:18.846Z,98826.76
2018-01-23T04:07:49.499Z,98834.02
2018-01-23T04:10:17.799Z,98840.27
2018-01-23T04:12:46.100Z,98836.39
2018-01-23T04:15:14.688Z,98840.26
2018-01-23T04:17:42.990Z,98840.50
2018-01-23T04:20:12.379Z,98840.27
2018-01-23T04:22:41.464Z,98840.39
2018-01-23T04:25:09.844Z,98842.39
2018-01-23T04:27:38.148Z,98843.86
2018-01-23T04:30:06.871Z,98850.57
2018-01-23T04:32:35.163Z,98846.98
2018-01-23T04:35:03.464Z,98858.36
2018-01-23T04:37:31.806Z,98860.70
2018-01-23T04:40:00.343Z,98858.53
2018-01-23T04:42:29.176Z,98858.92
2018-01-23T04:44:57.654Z,98858.99
2018-01-23T04:47:25.950Z,98859.20
2018-01-23T04:49:54.987Z,98858.09
2018-01-23T04:52:23.347Z,98866.90
2018-01-23T04:54:51.647Z,98864.28
2018-01-23T04:57:19.964Z,98864.25
2018-01-23T04:59:48.671Z,98871.98
2018-01-23T05:02:16.978Z,98876.77
2018-01-23T05:04:45.893Z,98877.23
2018-01-23T05:07:14.233Z,98885.22
2018-01-23T05:09:42.731Z,98882.77
2018-01-23T05:12:11.355Z,98884.16
2018-01-23T05:14:39.732Z,98889.41
2018-01-23T05:17:08.027Z,98889.60
2018-01-23T05:19:36.650Z,98890.13
2018-01-23T05:22:05.931Z,98890.20
2018-01-23T05:24:34.240Z,98893.98
2018-01-23T05:27:03.207Z,98892.75
2018-01-23T05:29:31.523Z,98890.15
2018-01-23T05:31:59.824Z,98897.51
2018-01-23T05:34:28.167Z,98899.16
2018-01-23T05:36:56.540Z,98905.88
2018-01-23T05:39:25.511Z,98906.23
2018-01-23T05:41:53.927Z,98909.90
2018-01-23T05:44:22.867Z,98911.48
2018-01-23T05:46:51.396Z,98913.69
2018-01-23T05:49:21.071Z,98914.61
2018-01-23T05:51:50.139Z,98921.84
2018-01-23T05:54:18.511Z,98918.13
2018-01-23T05:56:46.811Z,98923.38
2018-01-23T05:59:15.135Z,98918.13
2018-01-23T06:01:43.432Z,98923.70
2018-01-23T06:04:12.079Z,98933.17
2018-01-23T06:06:40.382Z,98933.06
2018-01-23T06:09:08.693Z,98939.38
2018-01-23T06:11:37.302Z,98943.06
2018-01-23T06:14:05.603Z,98946.25
2018-01-23T06:16:33.945Z,98951.11
2018-01-23T06:19:02.471Z,98956.02
2018-01-23T06:21:30.764Z,98965.49
2018-01-23T06:23:59.399Z,98968.69
2018-01-23T06:26:27.723Z,98969.36
2018-01-23T06:28:56.328Z,98970.80
2018-01-23T06:31:25.095Z,98984.98
2018-01-23T06:33:53.399Z,98990.12
2018-01-23T06:36:22.027Z,99000.34
2018-01-23T06:38:51.141Z,99000.80
2018-01-23T06:41:19.452Z,99008.06
2018-01-23T06:43:47.804Z,99007.05
2018-01-23T06:46:16.108Z,99009.05
2018-01-23T06:48:44.403Z,99012.29
2018-01-23T06:51:16.337Z,99011.89
2018-01-23T06:53:44.649Z,99015.97
2018-01-23T06:56:12.952Z,99020.75
2018-01-23T06:58:42.059Z,99025.13
2018-01-23T07:01:11.131Z,99027.67
2018-01-23T07:03:39.442Z,99035.91
2018-01-23T07:06:07.860Z,99039.09
2018-01-23T07:08:36.700Z,99041.36
2018-01-23T07:11:05.008Z,99055.31
2018-01-23T07:13:34.673Z,99054.91
2018-01-23T07:16:02.968Z,99058.50
2018-01-23T07:18:31.295Z,99069.20
2018-01-23T07:21:03.287Z,99077.86
2018-01-23T07:23:31.587Z,99082.93
2018-01-23T07:25:59.904Z,99089.19
2018-01-23T07:28:28.291Z,99096.05
2018-01-23T07:30:56.612Z,99096.78
2018-01-23T07:33:24.923Z,99096.86
2018-01-23T07:35:53.515Z,99094.58
2018-01-23T07:38:21.815Z,99083.53
2018-01-23T07:40:50.115Z,99080.73
2018-01-23T07:43:19.219Z,99084.06
2018-01-23T07:45:49.933Z,99095.95
2018-01-23T07:48:18.196Z,99090.78
2018-01-23T07:50:46.808Z,99085.31
2018-01-23T07:53:15.128Z,99086.19
2018-01-23T07:55:43.431Z,99085.95
2018-01-23T07:58:11.779Z,99091.06
2018-01-23T08:00:41.187Z,99097.23
2018-01-23T08:03:09.483Z,99094.44
2018-01-23T08:05:37.794Z,99098.67
2018-01-23T08:08:06.912Z,99105.36
2018-01-23T08:10:35.975Z,99109.94
2018-01-23T08:13:04.280Z,99102.45
2018-01-23T08:15:33.855Z,99104.63
2018-01-23T08:18:02.160Z,99108.13
2018-01-23T08:20:30.463Z,99114.34
2018-01-23T08:22:58.811Z,99118.18
2018-01-23T08:25:27.208Z,99115.58
2018-01-23T08:27:55.503Z,99116.59
2018-01-23T08:30:23.863Z,99120.90
2018-01-23T08:32:52.287Z,99128.02
2018-01-23T08:35:22.171Z,99129.28
2018-01-23T08:37:50.795Z,99137.42
2018-01-23T08:40:19.099Z,99145.62
2018-01-23T08:42:47.405Z,99146.81
2018-01-23T08:45:15.791Z,99138.70
2018-01-23T08:47:44.562Z,99142.65
2018-01-23T08:50:12.963Z,99151.52
2018-01-23T08:52:41.270Z,99144.42
2018-01-23T08:55:09.563Z,99140.20
2018-01-23T08:57:38.107Z,99145.05
2018-01-23T09:00:06.927Z,99143.09
2018-01-23T09:02:35.235Z,99146.84
2018-01-23T09:05:04.142Z,99152.95
2018-01-23T09:07:33.160Z,99154.72
2018-01-23T09:10:01.471Z,99162.19
2018-01-23T09:12:29.956Z,99164.83
2018-01-23T09:14:58.246Z,99161.14
2018-01-23T09:17:26.594Z,99166.71
2018-01-23T09:19:55.403Z,99161.44
2018-01-23T09:22:23.876Z,99160.67
2018-01-23T09:24:52.174Z,99161.67
2018-01-23T09:27:21.006Z,99164.95
2018-01-23T09:29:49.311Z,99162.82
2018-01-23T09:32:17.895Z,99174.62
2018-01-23T09:34:46.235Z,99171.55
2018-01-23T09:37:14.571Z,99178.06
2018-01-23T09:39:42.872Z,99190.38
2018-01-23T09:42:11.724Z,99186.16
2018-01-23T09:44:40.823Z,99187.25
2018-01-23T09:47:09.119Z,99192.08
2018-01-23T09:49:37.468Z,99196.33
2018-01-23T09:52:05.873Z,99188.16
2018-01-23T09:54:34.836Z,99201.59
2018-01-23T09:57:03.200Z,99201.94
2018-01-23T09:59:31.499Z,99202.25
2018-01-23T10:01:59.803Z,99208.24
2018-01-23T10:04:28.680Z,99205.50
2018-01-23T10:06:57.115Z,99209.14
2018-01-23T10:09:25.499Z,99208.91
2018-01-23T10:11:54.222Z,99215.83
2018-01-23T10:14:22.527Z,99214.11
2018-01-23T10:16:51.516Z,99210.53
2018-01-23T10:19:19.923Z,99207.59
2018-01-23T10:21:48.248Z,99218.52
2018-01-23T10:24:16.591Z,99217.55
2018-01-23T10:26:45.239Z,99212.52
2018-01-23T10:29:13.544Z,99211.98
2018-01-23T10:31:41.852Z,99216.36
2018-01-23T10:34:10.520Z,99211.63
2018-01-23T10:36:38.815Z,99206.15
2018-01-23T10:39:07.131Z,99212.24
2018-01-23T10:41:35.480Z,99213.95
2018-01-23T10:44:03.783Z,99217.30
2018-01-23T10:46:32.088Z,99215.58
2018-01-23T10:49:00.441Z,99217.59
2018-01-23T10:51:29.516Z,99209.54
2018-01-23T10:53:58.435Z,99208.47
2018-01-23T10:56:27.052Z,99200.84
2018-01-23T10:58:55.671Z,99199.25
2018-01-23T11:01:29.419Z,99205.98
2018-01-23T11:03:57.724Z,99210.42
2018-01-23T11:06:26.331Z,99205.30
2018-01-23T11:08:54.655Z,99204.18
2018-01-23T11:11:23.011Z,99203.06
2018-01-23T11:13:51.329Z,99206.59
2018-01-23T11:16:19.676Z,99207.80
2018-01-23T11:18:47.984Z,99210.20
2018-01-23T11:21:16.275Z,99202.27
2018-01-23T11:23:45.123Z,99195.48
2018-01-23T11:26:13.431Z,99195.09
2018-01-23T11:28:41.736Z,99197.69
2018-01-23T11:31:10.087Z,99191.38
2018-01-23T11:33:38.399Z,99189.89
2018-01-23T11:36:06.704Z,99191.35
2018-01-23T11:38:36.104Z,99183.05
2018-01-23T11:41:04.561Z,99181.05
2018-01-23T11:43:32.867Z,99184.08
2018-01-23T11:46:01.982Z,99174.31
2018-01-23T11:48:30.288Z,99178.66
2018-01-23T11:50:58.983Z,99180.02
2018-01-23T11:53:27.847Z,99169.82
2018-01-23T11:55:56.151Z,99164.23
2018-01-23T11:58:24.447Z,99160.39
2018-01-23T12:00:52.808Z,99154.87
2018-01-23T12:03:21.112Z,99154.67
2018-01-23T12:05:50.186Z,99150.49
2018-01-23T12:08:19.083Z,99151.67
2018-01-23T12:10:47.383Z,99147.21
2018-01-23T12:13:15.685Z,99133.74
2018-01-23T12:15:44.031Z,99128.72
2018-01-23T12:18:13.335Z,99128.04
2018-01-23T12:20:41.639Z,99133.59
2018-01-23T12:23:10.223Z,99131.54
2018-01-23T12:25:38.860Z,99128.82
2018-01-23T12:28:07.598Z,99131.97
2018-01-23T12:30:36.643Z,99128.02
2018-01-23T12:33:04.943Z,99132.77
2018-01-23T12:35:33.495Z,99131.86
2018-01-23T12:38:02.115Z,99128.31
2018-01-23T12:40:30.445Z,99125.32
2018-01-23T12:42:58.751Z,99128.52
2018-01-23T12:45:27.120Z,99127.64
2018-01-23T12:47:55.443Z,99119.83
2018-01-23T12:50:23.768Z,99121.34
2018-01-23T12:52:52.367Z,99125.83
2018-01-23T12:55:20.699Z,99126.73
2018-01-23T12:57:49.004Z,99126.21
2018-01-23T13:00:17.408Z,99130.97
2018-01-23T13:02:45.689Z,99129.52
2018-01-23T13:05:14.011Z,99134.63
2018-01-23T13:07:42.418Z,99133.30
2018-01-23T13:10:10.715Z,99125.30
2018-01-23T13:12:39.016Z,99124.28
2018-01-23T13:15:07.356Z,99125.00
2018-01-23T13:17:35.670Z,99115.98
2018-01-23T13:20:03.979Z,99117.00
2018-01-23T13:22:32.333Z,99116.52
2018-01-23T13:25:00.639Z,99110.99
2018-01-23T13:27:28.939Z,99115.77
2018-01-23T13:29:57.659Z,99118.02
2018-01-23T13:32:26.730Z,99121.02
2018-01-23T13:34:55.023Z,99118.31
2018-01-23T13:37:24.121Z,99117.97
2018-01-23T13:39:52.452Z,99113.97
2018-01-23T13:42:20.771Z,99106.52
2018-01-23T13:44:49.127Z,99108.23
2018-01-23T13:47:17.427Z,99111.53
2018-01-23T13:49:45.727Z,99111.34
2018-01-23T13:52:14.072Z,99107.27
2018-01-23T13:54:42.381Z,99111.95
2018-01-23T13:57:10.688Z,99106.70
2018-01-23T13:59:39.367Z,99113.17
2018-01-23T14:02:07.675Z,99116.20
2018-01-23T14:04:35.980Z,99119.17
2018-01-23T14:07:04.440Z,99119.97
2018-01-23T14:09:32.760Z,99123.39
2018-01-23T14:12:01.182Z,99124.87
2018-01-23T14:14:29.528Z,99122.39
2018-01-23T14:16:58.145Z,99120.10
2018-01-23T14:19:27.114Z,99123.33
2018-01-23T14:21:55.644Z,99115.38
2018-01-23T14:24:24.613Z,99119.22
2018-01-23T14:26:53.055Z,99120.42
2018-01-23T14:29:22.971Z,99121.87
2018-01-23T14:31:51.267Z,99126.91
2018-01-23T14:34:20.523Z,99123.23
2018-01-23T14:36:49.424Z,99124.73
2018-01-23T14:39:18.039Z,99125.58
2018-01-23T14:41:46.768Z,99134.66
2018-01-23T14:44:15.412Z,99135.95
2018-01-23T14:46:44.695Z,99140.39
2018-01-23T14:49:13.015Z,99134.80
2018-01-23T14:51:41.831Z,99135.80
2018-01-23T14:54:10.893Z,99137.58
2018-01-23T14:56:39.702Z,99138.02
2018-01-23T14:59:08.660Z,99140.94
2018-01-23T15:01:37.484Z,99138.00
2018-01-23T15:04:06.296Z,99137.32
2018-01-23T15:06:34.639Z,99141.76
2018-01-23T15:09:02.955Z,99134.55
2018-01-23T15:11:31.262Z,99139.55
2018-01-23T15:13:59.613Z,99142.23
2018-01-23T15:16:28.671Z,99140.75
2018-01-23T15:18:56.975Z,99143.64
2018-01-23T15:21:26.561Z,99149.77
2018-01-23T15:23:54.869Z,99138.52
2018-01-23T15:26:23.173Z,99143.62
2018-01-23T15:28:52.473Z,99150.02
2018-01-23T15:31:21.136Z,99143.62
2018-01-23T15:33:49.448Z,99147.81
2018-01-23T15:36:18.122Z,99149.67
2018-01-23T15:38:46.707Z,99151.91
2018-01-23T15:41:15.008Z,99159.74
2018-01-23T15:43:43.456Z,99156.41
2018-01-23T15:46:11.795Z,99161.98
2018-01-23T15:48:40.092Z,99159.19
2018-01-23T15:51:08.443Z,99155.36
2018-01-23T15:53:36.748Z,99151.08
2018-01-23T15:56:05.051Z,99154.38
2018-01-23T15:58:33.989Z,99155.66
2018-01-23T16:01:02.312Z,99151.34
2018-01-23T16:03:31.403Z,99155.47
2018-01-23T16:05:59.692Z,99153.53
2018-01-23T16:08:28.008Z,99155.86
2018-01-23T16:10:56.328Z,99152.95
2018-01-23T16:13:24.627Z,99147.25
2018-01-23T16:15:53.546Z,99149.99
2018-01-23T16:18:21.923Z,99156.18
2018-01-23T16:20:50.934Z,99154.04
2018-01-23T16:23:19.323Z,99153.30
2018-01-23T16:25:47.623Z,99156.59
2018-01-23T16:28:16.155Z,99155.11
2018-01-23T16:30:45.232Z,99155.70
2018-01-23T16:33:14.894Z,99146.38
2018-01-23T16:35:43.891Z,99147.32
2018-01-23T16:38:12.266Z,99145.02
2018-01-23T16:40:41.139Z,99150.49
2018-01-23T16:43:09.681Z,99150.64
2018-01-23T16:45:37.979Z,99145.55
2018-01-23T16:48:06.655Z,99148.86
2018-01-23T16:50:35.317Z,99144.77
2018-01-23T16:53:03.683Z,99143.05
2018-01-23T16:55:32.589Z,99143.42
2018-01-23T16:58:01.475Z,99145.58
2018-01-23T17:00:29.911Z,99143.62
2018-01-23T17:03:00.076Z,99147.51
2018-01-23T17:05:28.699Z,99147.37
2018-01-23T17:07:56.997Z,99145.50
2018-01-23T17:10:25.303Z,99146.48
2018-01-23T17:12:53.664Z,99140.50
2018-01-23T17:15:22.059Z,99137.92
2018-01-23T17:17:50.395Z,99136.14
2018-01-23T17:20:18.740Z,99146.61
2018-01-23T17:22:47.035Z,99140.66
2018-01-23T17:25:15.964Z,99145.08
2018-01-23T17:27:44.317Z,99141.25
2018-01-23T17:30:12.644Z,99140.77
2018-01-23T17:32:40.948Z,99139.69
2018-01-23T17:35:09.277Z,99141.09
2018-01-23T17:37:37.587Z,99138.17
2018-01-23T17:40:05.892Z,99134.84
2018-01-23T17:42:34.578Z,99134.02
2018-01-23T17:45:02.957Z,99133.25
2018-01-23T17:47:31.391Z,99133.25
2018-01-23T17:50:00.567Z,99134.89
2018-01-23T17:52:29.457Z,99134.45
2018-01-23T17:54:58.131Z,99128.12
2018-01-23T17:57:26.455Z,99131.47
2018-01-23T17:59:55.832Z,99140.32
2018-01-23T18:02:24.261Z,99143.08
2018-01-23T18:04:52.761Z,99142.14
2018-01-23T18:07:21.165Z,99140.90
2018-01-23T18:09:49.472Z,99142.63
2018-01-23T18:12:17.776Z,99136.81
2018-01-23T18:14:46.504Z,99138.16
2018-01-23T18:17:14.858Z,99142.42
2018-01-23T18:19:43.164Z,99143.01
2018-01-23T18:22:11.866Z,99144.60
2018-01-23T18:24:40.250Z,99145.25
2018-01-23T18:27:09.366Z,99150.31
2018-01-23T18:29:38.088Z,99153.64
2018-01-23T18:32:06.447Z,99151.62
2018-01-23T18:34:34.818Z,99151.70
2018-01-23T18:37:03.430Z,99147.91
2018-01-23T18:39:31.803Z,99147.56
2018-01-23T18:42:00.124Z,99141.91
2018-01-23T18:44:29.140Z,99138.05
2018-01-23T18:46:57.444Z,99148.69
2018-01-23T18:49:25.807Z,99150.36
2018-01-23T18:51:54.198Z,99140.98
2018-01-23T18:54:22.578Z,99142.34
2018-01-23T18:56:51.726Z,99139.59
2018-01-23T18:59:21.227Z,99139.84
2018-01-23T19:01:50.335Z,99134.12
2018-01-23T19:04:19.445Z,99139.78
2018-01-23T19:06:47.780Z,99144.46
2018-01-23T19:09:16.672Z,99143.96
2018-01-23T19:11:44.971Z,99136.58
2018-01-23T19:14:13.332Z,99139.19
2018-01-23T19:16:42.366Z,99144.22
2018-01-23T19:19:10.667Z,99143.09
2018-01-23T19:21:39.080Z,99144.59
2018-01-23T19:24:07.426Z,99143.20
2018-01-23T19:26:36.632Z,99150.98
2018-01-23T19:29:04.999Z,99151.22
2018-01-23T19:31:33.307Z,99158.38
2018-01-23T19:34:01.660Z,99156.29
2018-01-23T19:36:30.025Z,99150.68
2018-01-23T19:38:58.649Z,99153.25
2018-01-23T19:41:27.074Z,99157.27
2018-01-23T19:43:55.422Z,99154.34
2018-01-23T19:46:23.818Z,99155.92
2018-01-23T19:48:52.987Z,99159.30
2018-01-23T19:51:21.294Z,99157.38
2018-01-23T19:53:49.851Z,99165.78
2018-01-23T19:56:18.767Z,99160.25
2018-01-23T19:58:47.115Z,99147.11
2018-01-23T20:01:15.420Z,99143.14
2018-01-23T20:03:44.598Z,99139.02
2018-01-23T20:06:13.854Z,99147.20
2018-01-23T20:08:42.667Z,99152.34
2018-01-23T20:11:11.073Z,99158.77
2018-01-23T20:13:40.103Z,99150.56
2018-01-23T20:16:08.778Z,99150.16
2018-01-23T20:18:37.134Z,99149.30
2018-01-23T20:21:07.471Z,99141.41
2018-01-23T20:23:36.490Z,99139.36
2018-01-23T20:26:04.880Z,99136.26
2018-01-23T20:28:33.239Z,99124.58
2018-01-23T20:31:01.639Z,99117.63
2018-01-23T20:33:31.443Z,99112.94
2018-01-23T20:35:59.795Z,99112.67
2018-01-23T20:38:28.230Z,99114.98
2018-01-23T20:40:56.551Z,99102.29
2018-01-23T20:43:25.246Z,99097.06
2018-01-23T20:45:53.604Z,99103.38
2018-01-23T20:48:22.102Z,99101.67
2018-01-23T20:50:50.788Z,99112.78
2018-01-23T20:53:19.176Z,99116.17
2018-01-23T20:55:48.268Z,99125.76
2018-01-23T20:58:16.652Z,99124.03
2018-01-23T21:00:45.715Z,99119.17
2018-01-23T21:03:14.311Z,99106.80
2018-01-23T21:05:42.773Z,99111.52
2018-01-23T21:08:11.103Z,99112.86
2018-01-23T21:10:39.727Z,99115.87
2018-01-23T21:13:09.107Z,99114.46
2018-01-23T21:15:37.455Z,99111.42
2018-01-23T21:18:06.043Z,99106.93
2018-01-23T21:20:34.657Z,99101.07
2018-01-23T21:23:03.003Z,99106.88
2018-01-23T21:25:31.379Z,99108.46
2018-01-23T21:27:59.780Z,99114.59
2018-01-23T21:30:28.151Z,99111.06
2018-01-23T21:32:56.475Z,99105.62
2018-01-23T21:35:24.899Z,99104.06
2018-01-23T21:37:53.267Z,99103.02
2018-01-23T21:40:21.615Z,99104.64
2018-01-23T21:42:50.282Z,99109.26
2018-01-23T21:45:18.638Z,99117.52
2018-01-23T21:47:47.092Z,99120.88
2018-01-23T21:50:16.990Z,99125.25
2018-01-23T21:52:45.436Z,99123.69
2018-01-23T21:55:14.571Z,99119.94
2018-01-23T21:57:43.165Z,99126.91
2018-01-23T22:00:11.486Z,99131.22
2018-01-23T22:02:39.834Z,99133.08
2018-01-23T22:05:08.802Z,99143.21
2018-01-23T22:07:37.311Z,99146.98
2018-01-23T22:10:05.658Z,99149.97
2018-01-23T22:12:35.067Z,99154.72
2018-01-23T22:15:04.227Z,99162.68
2018-01-23T22:17:32.554Z,99163.99
2018-01-23T22:20:01.096Z,99158.17
2018-01-23T22:22:29.948Z,99162.28
2018-01-23T22:24:58.255Z,99164.78
2018-01-23T22:27:26.635Z,99153.31
2018-01-23T22:29:54.956Z,99148.86
2018-01-23T22:32:23.292Z,99151.48
2018-01-23T22:34:51.682Z,99149.11
2018-01-23T22:37:20.060Z,99150.75
2018-01-23T22:39:48.380Z,99151.64
2018-01-23T22:42:17.120Z,99153.78
2018-01-23T22:44:45.471Z,99148.03
2018-01-23T22:47:13.809Z,99153.19
2018-01-23T22:49:42.149Z,99150.00
2018-01-23T22:52:10.483Z,99146.53
2018-01-23T22:54:38.838Z,99145.19
2018-01-23T22:57:07.962Z,99150.56
2018-01-23T22:59:36.300Z,99157.17
2018-01-23T23:02:04.714Z,99153.45
2018-01-23T23:04:33.015Z,99160.68
2018-01-23T23:07:01.727Z,99158.00
2018-01-23T23:09:30.207Z,99160.38
2018-01-23T23:11:58.563Z,99166.56
2018-01-23T23:14:27.630Z,99166.12
2018-01-23T23:16:56.117Z,99164.66
2018-01-23T23:19:24.419Z,99168.71
2018-01-23T23:21:52.723Z,99160.70
2018-01-23T23:24:22.476Z,99157.72
2018-01-23T23:26:50.776Z,99161.05
2018-01-23T23:29:19.075Z,99158.21
2018-01-23T23:31:47.416Z,99162.20
2018-01-23T23:34:15.717Z,99165.28
2018-01-23T23:36:44.015Z,99157.60
2018-01-23T23:39:13.776Z,99159.56
2018-01-23T23:41:42.096Z,99148.08
2018-01-23T23:44:10.411Z,99146.05
2018-01-23T23:46:39.018Z,99144.66
2018-01-23T23:49:07.332Z,99132.80
2018-01-23T23:51:35.636Z,99123.70
2018-01-23T23:54:04.181Z,99122.86
2018-01-23T23:56:32.475Z,99119.20
2018-01-23T23:59:00.772Z,99115.52
